Accueil
METAR-TAF:

METAR-TAF

Aéroports :

Hermosillo, Mexique

latitude: 29-04N, longitude: 110-57W, altitude: 211 m

Observation

Le bulletin a été fait il y a 1 heure et 8 minutes, à 12:41 UTC
Vent calme
Température 28°C
Humidité 79%
Pression 1013 hPa
Visibilité: 16.1 km
Ciel clair

METAR: MMHO 211241Z 00000KT 10SM SKC 28/24 A2990 RMK ISOL CI HZY

Heure: 06:49 (13:49 UTC)

Prévision

Le bulletin a été fait il y a 9 heures et 13 minutes, à 04:36 UTC
Prévision valable du 21 à 06 UTC au 22 à 06 UTC
Vent 5 kt de ouest/sud-ouest
Visibilité: 10 km
Nuages épars à une hauteur de 2500 ft
A partir de 21 à 1800 UTC
Vent 10 kt de sud-ouest
Visibilité: 10 km
Nuages épars à une hauteur de 2500 ft
Nuages épars à une hauteur de 20000 ft
A partir de 22 à 0400 UTC
Vent 5 kt de ouest/sud-ouest
Visibilité: 10 km
Nuages épars à une hauteur de 20000 ft

TAF: MMHO 210436Z 2106/2206 24005KT P6SM SCT025 FM211800 23010KT P6SM SCT025 SCT200 FM220400 24005KT P6SM SCT200

Observations et prévisions météorologiques de plus de 4000 aéroports (messages METAR et TAF).

Les stations disponibles sont représentées par des disques jaunes et rouges sur la carte.

Passer la souris dessus pour voir le nom de la station.

Cliquer dessus pour voir les observations et prévisions météorologiques.

Pour changer de carte: cliquez sur les boutons verts avec une croix noire pour zoomer, sur le bouton vert avec un tiret pour effectuer un zoom arrière, ou sur les flèches vertes pour les cartes adjacentes.


METAR-TAF: